createdAt,value
2024-05-09T00:00:59.700Z,20.25
2024-05-09T00:02:01.396Z,21.50
2024-05-09T00:03:07.079Z,18.50
2024-05-09T00:04:08.995Z,19.50
2024-05-09T00:05:13.460Z,21.50
2024-05-09T00:06:15.137Z,21.00
2024-05-09T00:07:19.387Z,18.50
2024-05-09T00:08:21.156Z,20.00
2024-05-09T00:09:25.416Z,17.25
2024-05-09T00:10:35.363Z,19.75
2024-05-09T00:11:42.126Z,16.75
2024-05-09T00:12:43.788Z,23.00
2024-05-09T00:13:47.966Z,19.25
2024-05-09T00:14:49.587Z,18.75
2024-05-09T00:15:56.390Z,16.25
2024-05-09T00:16:57.978Z,19.75
2024-05-09T00:18:02.578Z,19.75
2024-05-09T00:19:04.467Z,19.00
2024-05-09T00:20:17.433Z,20.00
2024-05-09T00:21:22.123Z,22.00
2024-05-09T00:22:26.286Z,17.50
2024-05-09T00:23:28.180Z,19.00
2024-05-09T00:24:32.402Z,19.00
2024-05-09T00:25:33.966Z,21.00
2024-05-09T00:26:38.238Z,19.50
2024-05-09T00:27:41.571Z,21.75
2024-05-09T00:28:43.209Z,19.75
2024-05-09T00:29:47.411Z,21.75
2024-05-09T00:30:48.974Z,19.75
2024-05-09T00:31:55.847Z,17.75
2024-05-09T00:32:57.637Z,18.00
2024-05-09T00:34:02.148Z,20.00
2024-05-09T00:35:04.000Z,18.25
2024-05-09T00:36:08.322Z,19.50
2024-05-09T00:37:09.887Z,16.50
2024-05-09T00:38:14.156Z,18.00
2024-05-09T00:39:15.945Z,19.00
2024-05-09T00:40:30.721Z,16.25
2024-05-09T00:41:42.349Z,19.50
2024-05-09T00:42:43.979Z,19.00
2024-05-09T00:43:48.190Z,19.00
2024-05-09T00:44:49.908Z,20.00
2024-05-09T00:45:54.946Z,18.75
2024-05-09T00:46:59.215Z,18.75
2024-05-09T00:48:04.890Z,17.00
2024-05-09T00:49:06.664Z,19.00
2024-05-09T00:50:15.979Z,19.75
2024-05-09T00:51:24.091Z,18.50
2024-05-09T00:52:28.532Z,19.25
2024-05-09T00:53:30.258Z,18.75
2024-05-09T00:54:34.497Z,18.25
2024-05-09T00:55:36.090Z,21.00
2024-05-09T00:56:37.719Z,21.00
2024-05-09T00:57:42.133Z,22.75
2024-05-09T00:58:43.777Z,18.75
2024-05-09T00:59:47.957Z,20.75
2024-05-09T01:00:50.048Z,23.50
2024-05-09T01:01:54.375Z,19.50
2024-05-09T01:02:58.804Z,20.25
2024-05-09T01:04:03.251Z,17.75
2024-05-09T01:05:05.284Z,21.00
2024-05-09T01:06:09.735Z,20.00
2024-05-09T01:07:11.300Z,20.50
2024-05-09T01:08:15.563Z,18.50
2024-05-09T01:09:17.176Z,20.00
2024-05-09T01:10:27.755Z,21.50
2024-05-09T01:11:35.955Z,20.50
2024-05-09T01:12:40.304Z,17.50
2024-05-09T01:13:41.947Z,19.00
2024-05-09T01:14:46.159Z,19.00
2024-05-09T01:15:50.058Z,18.00
2024-05-09T01:16:54.298Z,19.00
2024-05-09T01:17:58.621Z,16.50
2024-05-09T01:19:03.135Z,18.75
2024-05-09T01:20:06.408Z,18.50
2024-05-09T01:21:14.708Z,18.50
2024-05-09T01:22:16.381Z,17.75
2024-05-09T01:23:23.231Z,19.00
2024-05-09T01:24:24.898Z,20.75
2024-05-09T01:25:29.096Z,18.75
2024-05-09T01:26:31.131Z,16.25
2024-05-09T01:27:35.411Z,21.00
2024-05-09T01:28:37.007Z,18.25
2024-05-09T01:29:41.202Z,18.50
2024-05-09T01:30:42.787Z,17.75
2024-05-09T01:31:47.671Z,18.75
2024-05-09T01:32:49.563Z,16.75
2024-05-09T01:33:53.934Z,19.50
2024-05-09T01:34:55.620Z,20.25
2024-05-09T01:35:59.827Z,19.00
2024-05-09T01:37:01.383Z,19.25
2024-05-09T01:38:05.785Z,18.25
2024-05-09T01:39:10.127Z,18.00
2024-05-09T01:40:18.610Z,21.50
2024-05-09T01:41:26.582Z,17.25
2024-05-09T01:42:30.821Z,17.00
2024-05-09T01:43:32.447Z,20.00
2024-05-09T01:44:34.110Z,17.25
2024-05-09T01:45:38.298Z,18.50
2024-05-09T01:46:39.885Z,17.50
2024-05-09T01:47:44.373Z,20.50
2024-05-09T01:48:46.343Z,17.75
2024-05-09T01:49:50.613Z,19.00
2024-05-09T01:50:52.242Z,17.50
2024-05-09T01:51:56.471Z,17.50
2024-05-09T01:52:58.073Z,18.25
2024-05-09T01:54:02.341Z,18.00
2024-05-09T01:55:07.014Z,18.00
2024-05-09T01:56:12.039Z,19.00
2024-05-09T01:57:13.693Z,21.50
2024-05-09T01:58:17.871Z,17.25
2024-05-09T01:59:19.538Z,19.25
2024-05-09T02:00:36.405Z,20.25
2024-05-09T02:01:56.133Z,17.50
2024-05-09T02:03:02.198Z,19.75
2024-05-09T02:04:04.279Z,18.00
2024-05-09T02:05:08.992Z,18.75
2024-05-09T02:06:10.760Z,18.75
2024-05-09T02:07:15.025Z,17.50
2024-05-09T02:08:17.874Z,17.00
2024-05-09T02:09:22.483Z,18.50
2024-05-09T02:10:32.313Z,17.50
2024-05-09T02:11:42.957Z,18.75
2024-05-09T02:12:44.640Z,15.75
2024-05-09T02:13:49.011Z,17.75
2024-05-09T02:14:51.347Z,20.00
2024-05-09T02:15:55.572Z,18.25
2024-05-09T02:16:57.208Z,20.00
2024-05-09T02:18:01.615Z,19.00
2024-05-09T02:19:03.407Z,20.25
2024-05-09T02:20:13.110Z,19.25
2024-05-09T02:21:17.733Z,21.75
2024-05-09T02:22:21.894Z,18.00
2024-05-09T02:23:23.501Z,17.00
2024-05-09T02:24:27.727Z,18.00
2024-05-09T02:25:31.989Z,19.50
2024-05-09T02:26:36.384Z,20.00
2024-05-09T02:27:37.998Z,18.25
2024-05-09T02:28:42.172Z,20.25
2024-05-09T02:29:44.714Z,23.50
2024-05-09T02:30:48.907Z,16.75
2024-05-09T02:31:50.560Z,19.75
2024-05-09T02:32:52.365Z,20.00
2024-05-09T02:33:56.901Z,19.50
2024-05-09T02:34:58.599Z,21.00
2024-05-09T02:36:00.170Z,21.50
2024-05-09T02:37:04.398Z,20.00
2024-05-09T02:38:06.012Z,19.00
2024-05-09T02:39:07.655Z,17.75
2024-05-09T02:40:14.380Z,19.50
2024-05-09T02:41:21.818Z,22.75
2024-05-09T02:42:23.489Z,18.75
2024-05-09T02:43:25.079Z,16.00
2024-05-09T02:44:26.881Z,19.25
2024-05-09T02:45:31.052Z,19.75
2024-05-09T02:46:32.604Z,19.75
2024-05-09T02:47:34.343Z,17.25
2024-05-09T02:48:36.075Z,19.25
2024-05-09T02:49:40.453Z,19.25
2024-05-09T02:50:44.031Z,16.75
2024-05-09T02:51:45.833Z,19.75
2024-05-09T02:52:47.495Z,20.00
2024-05-09T02:53:51.695Z,17.50
2024-05-09T02:54:53.444Z,20.00
2024-05-09T02:55:55.113Z,20.25
2024-05-09T02:56:59.345Z,19.25
2024-05-09T02:58:03.548Z,19.00
2024-05-09T02:59:05.162Z,20.25
2024-05-09T03:00:14.974Z,20.00
2024-05-09T03:01:22.883Z,21.25
2024-05-09T03:02:24.628Z,20.00
2024-05-09T03:03:26.677Z,23.00
2024-05-09T03:04:28.627Z,22.25
2024-05-09T03:05:32.997Z,19.75
2024-05-09T03:06:34.653Z,19.25
2024-05-09T03:07:36.227Z,19.50
2024-05-09T03:08:37.900Z,20.00
2024-05-09T03:09:42.086Z,20.25
2024-05-09T03:10:43.679Z,20.00
2024-05-09T03:11:46.037Z,17.00
2024-05-09T03:12:50.327Z,18.50
2024-05-09T03:13:54.590Z,20.00
2024-05-09T03:14:56.165Z,19.75
2024-05-09T03:15:59.455Z,16.50
2024-05-09T03:17:03.628Z,16.50
2024-05-09T03:18:05.932Z,17.25
2024-05-09T03:19:07.927Z,17.00
2024-05-09T03:20:17.408Z,17.25
2024-05-09T03:21:27.684Z,17.00
2024-05-09T03:22:29.247Z,16.00
2024-05-09T03:23:30.957Z,17.50
2024-05-09T03:24:35.222Z,17.25
2024-05-09T03:25:36.776Z,17.25
2024-05-09T03:26:38.424Z,19.50
2024-05-09T03:27:40.102Z,17.00
2024-05-09T03:28:46.958Z,18.00
2024-05-09T03:29:48.601Z,16.25
2024-05-09T03:30:50.146Z,20.00
2024-05-09T03:31:52.058Z,16.75
2024-05-09T03:32:56.399Z,15.50
2024-05-09T03:33:58.375Z,16.75
2024-05-09T03:35:00.139Z,17.25
2024-05-09T03:36:02.676Z,19.25
2024-05-09T03:37:06.895Z,18.25
2024-05-09T03:38:08.634Z,18.25
2024-05-09T03:39:10.865Z,20.00
2024-05-09T03:40:20.896Z,16.50
2024-05-09T03:41:25.655Z,16.75
2024-05-09T03:42:27.248Z,17.00
2024-05-09T03:43:31.430Z,17.25
2024-05-09T03:44:35.640Z,16.00
2024-05-09T03:45:37.269Z,17.00
2024-05-09T03:46:41.447Z,17.00
2024-05-09T03:47:43.193Z,17.00
2024-05-09T03:48:44.939Z,19.50
2024-05-09T03:49:46.639Z,17.00
2024-05-09T03:50:51.026Z,16.00
2024-05-09T03:51:52.618Z,18.75
2024-05-09T03:52:54.218Z,21.50
2024-05-09T03:53:55.834Z,20.75
2024-05-09T03:55:00.012Z,20.50
2024-05-09T03:56:03.073Z,14.00
2024-05-09T03:57:05.048Z,15.75
2024-05-09T03:58:09.310Z,19.25
2024-05-09T03:59:10.992Z,15.25
2024-05-09T04:00:22.081Z,18.75
2024-05-09T04:01:30.043Z,16.00
2024-05-09T04:02:34.452Z,15.50
2024-05-09T04:03:36.170Z,18.75
2024-05-09T04:04:40.703Z,14.50
2024-05-09T04:05:44.064Z,15.75
2024-05-09T04:06:48.839Z,15.75
2024-05-09T04:07:50.451Z,16.75
2024-05-09T04:08:52.080Z,16.00
2024-05-09T04:09:53.667Z,15.75
2024-05-09T04:10:57.877Z,17.75
2024-05-09T04:11:59.600Z,19.00
2024-05-09T04:13:01.322Z,15.75
2024-05-09T04:14:05.602Z,16.75
2024-05-09T04:15:09.592Z,17.25
2024-05-09T04:16:15.418Z,17.50
2024-05-09T04:17:19.664Z,16.50
2024-05-09T04:18:21.506Z,16.00
2024-05-09T04:19:23.255Z,14.00
2024-05-09T04:20:34.323Z,16.75
2024-05-09T04:21:43.068Z,18.00
2024-05-09T04:22:44.721Z,17.00
2024-05-09T04:23:46.355Z,17.00
2024-05-09T04:24:48.189Z,16.75
2024-05-09T04:25:52.415Z,16.50
2024-05-09T04:26:54.064Z,15.75
2024-05-09T04:27:55.997Z,17.00
2024-05-09T04:28:58.011Z,15.75
2024-05-09T04:30:02.317Z,19.50
2024-05-09T04:31:03.996Z,18.50
2024-05-09T04:32:08.471Z,16.50
2024-05-09T04:33:12.390Z,14.00
2024-05-09T04:34:18.331Z,18.00
2024-05-09T04:35:22.311Z,17.50
2024-05-09T04:36:23.964Z,19.00
2024-05-09T04:37:25.577Z,16.25
2024-05-09T04:38:30.313Z,18.50
2024-05-09T04:39:31.947Z,18.75
2024-05-09T04:40:36.126Z,17.00
2024-05-09T04:41:41.527Z,16.25
2024-05-09T04:42:43.111Z,17.00
2024-05-09T04:43:44.786Z,16.75
2024-05-09T04:44:46.409Z,16.50
2024-05-09T04:45:50.583Z,15.50
2024-05-09T04:46:52.268Z,15.00
2024-05-09T04:47:56.768Z,16.75
2024-05-09T04:49:01.267Z,16.00
2024-05-09T04:50:03.570Z,14.00
2024-05-09T04:51:06.770Z,15.25
2024-05-09T04:52:08.400Z,14.00
2024-05-09T04:53:12.702Z,17.00
2024-05-09T04:54:26.023Z,17.00
2024-05-09T04:55:35.499Z,15.50
2024-05-09T04:56:39.722Z,16.75
2024-05-09T04:57:41.293Z,16.00
2024-05-09T04:58:42.955Z,16.25
2024-05-09T04:59:44.516Z,16.00
2024-05-09T05:00:48.750Z,18.25
2024-05-09T05:01:50.525Z,17.25
2024-05-09T05:02:52.335Z,19.50
2024-05-09T05:03:57.077Z,16.75
2024-05-09T05:05:01.634Z,16.25
2024-05-09T05:06:03.570Z,15.75
2024-05-09T05:07:05.203Z,16.75
2024-05-09T05:08:08.196Z,16.25
2024-05-09T05:09:12.456Z,15.75
2024-05-09T05:10:21.109Z,15.50
2024-05-09T05:11:26.844Z,17.25
2024-05-09T05:12:46.802Z,18.25
2024-05-09T05:13:51.006Z,15.00
2024-05-09T05:14:52.692Z,17.00
2024-05-09T05:15:57.200Z,15.50
2024-05-09T05:17:02.298Z,16.25
2024-05-09T05:18:04.328Z,17.00
2024-05-09T05:19:12.674Z,18.25
2024-05-09T05:20:24.382Z,15.75
2024-05-09T05:21:35.201Z,16.00
2024-05-09T05:22:36.861Z,17.00
2024-05-09T05:23:40.697Z,16.00
2024-05-09T05:24:43.537Z,13.75
2024-05-09T05:25:47.948Z,16.00
2024-05-09T05:26:49.754Z,16.75
2024-05-09T05:27:51.639Z,14.25
2024-05-09T05:28:55.860Z,15.75
2024-05-09T05:29:57.513Z,16.50
2024-05-09T05:30:59.151Z,15.75
2024-05-09T05:32:00.825Z,14.25
2024-05-09T05:33:05.189Z,16.50
2024-05-09T05:34:09.486Z,14.50
2024-05-09T05:35:11.100Z,15.75
2024-05-09T05:36:12.746Z,15.75
2024-05-09T05:37:16.995Z,13.25
2024-05-09T05:38:19.129Z,17.00
2024-05-09T05:39:21.533Z,17.00
2024-05-09T05:40:32.148Z,17.00
2024-05-09T05:41:40.179Z,16.50
2024-05-09T05:42:41.795Z,15.75
2024-05-09T05:43:43.401Z,16.50
2024-05-09T05:44:47.591Z,15.00
2024-05-09T05:45:49.196Z,16.25
2024-05-09T05:46:51.055Z,15.75
2024-05-09T05:47:53.501Z,13.75
2024-05-09T05:48:57.814Z,16.50
2024-05-09T05:50:02.314Z,15.75
2024-05-09T05:51:06.252Z,16.50
2024-05-09T05:52:07.936Z,15.50
2024-05-09T05:53:12.291Z,16.50
2024-05-09T05:54:13.917Z,14.50
2024-05-09T05:55:15.484Z,17.00
2024-05-09T05:56:19.833Z,15.50
2024-05-09T05:57:21.579Z,16.50
2024-05-09T05:58:23.180Z,15.50
2024-05-09T05:59:24.882Z,17.25
2024-05-09T06:00:35.394Z,15.00
2024-05-09T06:01:40.363Z,14.00
2024-05-09T06:02:42.169Z,17.75
2024-05-09T06:03:44.026Z,17.25
2024-05-09T06:04:48.445Z,18.50
2024-05-09T06:05:52.705Z,19.00
2024-05-09T06:06:54.270Z,17.75
2024-05-09T06:07:58.641Z,18.50
2024-05-09T06:09:00.233Z,17.75
2024-05-09T06:10:01.846Z,19.25
2024-05-09T06:11:04.124Z,20.00
2024-05-09T06:12:08.802Z,15.00
2024-05-09T06:13:11.428Z,19.00
2024-05-09T06:14:13.683Z,17.00
2024-05-09T06:15:15.384Z,18.25
2024-05-09T06:16:19.558Z,20.00
2024-05-09T06:17:21.266Z,22.00
2024-05-09T06:18:23.378Z,23.25
2024-05-09T06:19:27.842Z,22.00
2024-05-09T06:20:36.183Z,18.50
2024-05-09T06:21:42.298Z,18.00
2024-05-09T06:22:44.096Z,18.00
2024-05-09T06:23:48.682Z,15.50
2024-05-09T06:24:50.292Z,17.00
2024-05-09T06:25:52.322Z,18.50
2024-05-09T06:26:53.885Z,18.00
2024-05-09T06:27:58.075Z,19.75
2024-05-09T06:29:00.614Z,19.25
2024-05-09T06:30:02.223Z,18.50
2024-05-09T06:31:03.868Z,17.50
2024-05-09T06:32:08.210Z,16.50
2024-05-09T06:33:11.947Z,15.50
2024-05-09T06:34:18.547Z,15.00
2024-05-09T06:35:22.867Z,16.50
2024-05-09T06:36:24.429Z,18.75
2024-05-09T06:37:28.611Z,17.00
2024-05-09T06:38:30.292Z,21.25
2024-05-09T06:39:34.572Z,17.75
2024-05-09T06:40:38.907Z,19.75
2024-05-09T06:41:42.020Z,23.00
2024-05-09T06:42:46.231Z,18.50
2024-05-09T06:43:47.917Z,16.50
2024-05-09T06:44:49.615Z,17.75
2024-05-09T06:45:52.634Z,19.75
2024-05-09T06:46:59.739Z,20.50
2024-05-09T06:48:01.848Z,20.25
2024-05-09T06:49:08.153Z,23.75
2024-05-09T06:50:20.289Z,18.00
2024-05-09T06:51:25.664Z,20.00
2024-05-09T06:52:29.967Z,19.50
2024-05-09T06:53:31.637Z,21.00
2024-05-09T06:54:35.955Z,21.25
2024-05-09T06:55:38.009Z,21.00
2024-05-09T06:56:39.837Z,21.00
2024-05-09T06:57:43.126Z,23.50
2024-05-09T06:58:47.490Z,22.50
2024-05-09T06:59:49.150Z,22.00
2024-05-09T07:00:50.816Z,17.50
2024-05-09T07:01:55.086Z,22.00
2024-05-09T07:02:56.879Z,21.50
2024-05-09T07:03:58.870Z,22.75
2024-05-09T07:05:00.680Z,22.50
2024-05-09T07:06:05.138Z,20.75
2024-05-09T07:07:09.238Z,24.50
2024-05-09T07:08:13.643Z,23.75
2024-05-09T07:09:17.891Z,23.25
2024-05-09T07:10:28.355Z,26.50
2024-05-09T07:11:34.251Z,24.25
2024-05-09T07:12:35.988Z,23.50
2024-05-09T07:13:40.171Z,25.50
2024-05-09T07:14:41.963Z,26.75
2024-05-09T07:15:43.629Z,27.00
2024-05-09T07:16:45.360Z,27.25
2024-05-09T07:17:49.685Z,30.25
2024-05-09T07:18:55.082Z,35.50
2024-05-09T07:19:56.912Z,33.50
2024-05-09T07:20:58.609Z,34.75
2024-05-09T07:22:02.784Z,32.25
2024-05-09T07:23:04.783Z,36.75
2024-05-09T07:24:09.025Z,32.50
2024-05-09T07:25:10.628Z,32.50
2024-05-09T07:26:14.892Z,34.00
2024-05-09T07:27:16.459Z,35.50
2024-05-09T07:28:18.561Z,33.00
2024-05-09T07:29:22.843Z,32.75
2024-05-09T07:30:32.540Z,34.25
2024-05-09T07:31:35.813Z,37.25
2024-05-09T07:32:40.351Z,37.75
2024-05-09T07:33:42.057Z,32.50
2024-05-09T07:34:43.729Z,34.50
2024-05-09T07:35:45.387Z,32.75
2024-05-09T07:36:49.691Z,35.25
2024-05-09T07:37:51.374Z,32.50
2024-05-09T07:38:52.997Z,31.50
2024-05-09T07:39:58.714Z,32.75
2024-05-09T07:41:02.908Z,31.75
2024-05-09T07:42:04.924Z,30.25
2024-05-09T07:43:06.680Z,29.00
2024-05-09T07:44:08.315Z,28.00
2024-05-09T07:45:29.823Z,25.50
2024-05-09T07:48:58.106Z,22.25
2024-05-09T07:50:53.244Z,22.25
2024-05-09T07:53:08.503Z,19.75
2024-05-09T07:53:35.518Z,26.50
2024-05-09T07:54:15.128Z,24.50
2024-05-09T07:55:19.566Z,24.50
2024-05-09T07:56:25.017Z,18.50
2024-05-09T07:57:27.423Z,20.50
2024-05-09T07:58:29.125Z,19.75
2024-05-09T07:59:37.175Z,20.00
2024-05-09T08:00:39.667Z,18.25
2024-05-09T08:01:41.374Z,19.00
2024-05-09T08:02:45.668Z,16.25
2024-05-09T08:03:47.687Z,21.00
2024-05-09T08:04:49.390Z,16.00
2024-05-09T08:05:51.670Z,17.50
2024-05-09T08:06:56.066Z,13.25
2024-05-09T08:07:57.689Z,16.00
2024-05-09T08:09:03.027Z,15.25
2024-05-09T08:10:15.396Z,15.50
2024-05-09T08:11:23.856Z,15.25
2024-05-09T08:12:25.518Z,16.25
2024-05-09T08:13:29.661Z,15.50
2024-05-09T08:14:31.439Z,14.00
2024-05-09T08:15:33.119Z,15.00
2024-05-09T08:16:37.374Z,11.50
2024-05-09T08:17:39.021Z,9.00
2024-05-09T08:18:41.170Z,10.00
2024-05-09T08:19:43.071Z,8.00
2024-05-09T08:20:50.208Z,9.50
2024-05-09T08:21:51.877Z,11.00
2024-05-09T08:22:53.473Z,9.25
2024-05-09T08:23:57.649Z,10.00
2024-05-09T08:24:59.310Z,8.25
2024-05-09T08:26:01.201Z,7.50
2024-05-09T08:27:05.539Z,11.75
2024-05-09T08:28:09.926Z,12.25
2024-05-09T08:29:11.540Z,10.00
2024-05-09T08:30:21.590Z,9.00
2024-05-09T08:31:29.534Z,6.75
2024-05-09T08:32:32.375Z,9.00
2024-05-09T08:33:34.176Z,8.75
2024-05-09T08:34:35.987Z,6.00
2024-05-09T08:35:40.234Z,7.75
2024-05-09T08:36:42.335Z,9.00
2024-05-09T08:37:44.144Z,7.25
2024-05-09T08:38:48.513Z,6.00
2024-05-09T08:39:50.096Z,9.75
2024-05-09T08:40:51.849Z,7.75
2024-05-09T08:41:53.466Z,7.25
2024-05-09T08:43:01.431Z,7.00
2024-05-09T08:44:03.104Z,10.25
2024-05-09T08:45:05.256Z,11.75
2024-05-09T08:46:07.536Z,6.00
2024-05-09T08:47:11.755Z,6.00
2024-05-09T08:48:14.777Z,7.00
2024-05-09T08:49:17.751Z,7.00
2024-05-09T08:50:28.956Z,6.00
2024-05-09T08:51:40.318Z,8.50
2024-05-09T08:52:41.893Z,8.25
2024-05-09T08:53:43.550Z,7.75
2024-05-09T08:54:45.307Z,7.00
2024-05-09T08:55:49.540Z,7.25
2024-05-09T08:56:51.259Z,8.00
2024-05-09T08:57:53.022Z,8.00
2024-05-09T08:58:58.965Z,7.50
2024-05-09T09:00:09.903Z,6.75
2024-05-09T09:01:12.080Z,6.50
2024-05-09T09:02:14.138Z,5.00
2024-05-09T09:03:19.065Z,7.75
2024-05-09T09:04:21.321Z,9.75
2024-05-09T09:05:23.270Z,14.00
2024-05-09T09:06:25.039Z,13.25
2024-05-09T09:07:29.453Z,10.75
2024-05-09T09:08:31.065Z,7.00
2024-05-09T09:09:32.809Z,5.25
2024-05-09T09:10:34.559Z,6.00
2024-05-09T09:11:39.008Z,16.00
2024-05-09T09:12:40.675Z,9.25
2024-05-09T09:13:42.266Z,7.50
2024-05-09T09:14:46.460Z,7.25
2024-05-09T09:15:50.820Z,7.00
2024-05-09T09:16:53.138Z,7.50
2024-05-09T09:17:56.160Z,6.25
2024-05-09T09:19:00.514Z,5.50
2024-05-09T09:20:02.376Z,6.00
2024-05-09T09:21:04.305Z,6.75
2024-05-09T09:22:05.956Z,6.00
2024-05-09T09:23:10.231Z,7.25
2024-05-09T09:24:11.821Z,6.00
2024-05-09T09:25:13.493Z,7.50
2024-05-09T09:26:15.746Z,6.00
2024-05-09T09:27:19.952Z,7.00
2024-05-09T09:28:22.564Z,8.00
2024-05-09T09:29:24.289Z,6.00
2024-05-09T09:30:36.857Z,8.00
2024-05-09T09:31:39.702Z,6.50
2024-05-09T09:32:41.448Z,6.00
2024-05-09T09:33:45.876Z,6.25
2024-05-09T09:34:47.745Z,6.25
2024-05-09T09:35:49.351Z,6.00
2024-05-09T09:36:50.939Z,5.50
2024-05-09T09:37:55.109Z,6.50
2024-05-09T09:38:56.742Z,6.50
2024-05-09T09:39:58.429Z,7.00
2024-05-09T09:41:00.323Z,7.00
2024-05-09T09:42:05.101Z,6.75
2024-05-09T09:43:07.367Z,6.00
2024-05-09T09:44:09.276Z,6.25
2024-05-09T09:45:13.512Z,6.00
2024-05-09T09:46:17.785Z,8.00
2024-05-09T09:47:19.444Z,7.00
2024-05-09T09:48:21.758Z,6.75
2024-05-09T09:49:26.496Z,8.50
2024-05-09T09:50:34.108Z,7.50
2024-05-09T09:51:36.752Z,5.25
2024-05-09T09:52:38.615Z,5.75
2024-05-09T09:53:42.869Z,5.00
2024-05-09T09:54:45.142Z,6.25
2024-05-09T09:55:46.947Z,6.00
2024-05-09T09:56:48.796Z,6.50
2024-05-09T09:57:53.528Z,5.75
2024-05-09T09:58:55.103Z,6.75
2024-05-09T09:59:56.706Z,7.25
2024-05-09T10:00:58.647Z,8.25
2024-05-09T10:02:05.702Z,9.00
2024-05-09T10:03:07.380Z,9.25
2024-05-09T10:04:09.246Z,7.00
2024-05-09T10:05:11.230Z,5.00
2024-05-09T10:06:15.529Z,6.25
2024-05-09T10:07:17.335Z,7.00
2024-05-09T10:08:19.033Z,7.50
2024-05-09T10:09:23.216Z,7.00
2024-05-09T10:11:30.210Z,6.75
2024-05-09T10:12:33.239Z,7.00
2024-05-09T10:13:37.802Z,7.75
2024-05-09T10:14:46.067Z,7.00
2024-05-09T10:15:48.183Z,6.00
2024-05-09T10:16:49.917Z,6.00
2024-05-09T10:17:56.796Z,6.00
2024-05-09T10:18:58.891Z,6.00
2024-05-09T10:20:11.734Z,5.50
2024-05-09T10:21:22.416Z,7.00
2024-05-09T10:22:27.807Z,9.00
2024-05-09T10:23:29.705Z,7.00
2024-05-09T10:24:48.597Z,6.00
2024-05-09T10:25:57.450Z,6.00
2024-05-09T10:26:59.053Z,5.25
2024-05-09T10:28:03.282Z,5.50
2024-05-09T10:29:11.075Z,6.00
2024-05-09T10:30:26.001Z,5.00
2024-05-09T10:31:34.138Z,6.00
2024-05-09T10:32:37.649Z,6.00
2024-05-09T10:33:45.371Z,6.00
2024-05-09T10:34:59.085Z,6.00
2024-05-09T10:36:05.275Z,6.00
2024-05-09T10:37:07.070Z,6.00
2024-05-09T10:38:08.807Z,5.00
2024-05-09T10:39:13.363Z,6.00
2024-05-09T10:40:25.911Z,5.50
2024-05-09T10:41:31.004Z,5.75
2024-05-09T10:42:33.800Z,5.50
2024-05-09T10:43:35.603Z,6.00
2024-05-09T10:44:40.099Z,7.00
2024-05-09T10:45:41.708Z,6.00
2024-05-09T10:46:43.379Z,6.00
2024-05-09T10:47:47.766Z,6.00
2024-05-09T10:48:52.435Z,6.75
2024-05-09T10:49:54.265Z,6.00
2024-05-09T10:50:55.859Z,5.75
2024-05-09T10:52:00.084Z,5.00
2024-05-09T10:53:02.502Z,6.00
2024-05-09T10:54:04.180Z,5.00
2024-05-09T10:55:06.276Z,5.25
2024-05-09T10:56:10.604Z,6.00
2024-05-09T10:57:12.251Z,6.25
2024-05-09T10:58:17.064Z,5.00
2024-05-09T10:59:18.839Z,7.00
2024-05-09T11:00:29.976Z,6.25
2024-05-09T11:01:35.490Z,5.75
2024-05-09T11:02:37.555Z,6.00
2024-05-09T11:03:42.203Z,5.00
2024-05-09T11:04:46.758Z,5.75
2024-05-09T11:05:48.474Z,6.00
2024-05-09T11:06:50.188Z,6.00
2024-05-09T11:07:54.425Z,6.50
2024-05-09T11:08:56.011Z,5.00
2024-05-09T11:09:57.699Z,5.25
2024-05-09T11:10:59.559Z,5.75
2024-05-09T11:12:04.201Z,5.00
2024-05-09T11:13:05.983Z,6.50
2024-05-09T11:14:13.622Z,5.00
2024-05-09T11:15:16.505Z,5.75
2024-05-09T11:16:21.891Z,7.00
2024-05-09T11:17:23.686Z,6.00
2024-05-09T11:18:28.125Z,6.50
2024-05-09T11:19:34.188Z,5.50
2024-05-09T11:20:38.784Z,5.50
2024-05-09T11:21:40.600Z,6.75
2024-05-09T11:22:42.208Z,6.75
2024-05-09T11:23:46.465Z,6.25
2024-05-09T11:24:48.536Z,6.50
2024-05-09T11:25:50.212Z,6.00
2024-05-09T11:26:54.426Z,6.00
2024-05-09T11:27:58.232Z,6.00
2024-05-09T11:28:59.919Z,5.75
2024-05-09T11:30:04.467Z,3.75
2024-05-09T11:31:08.554Z,6.00
2024-05-09T11:32:11.748Z,6.50
2024-05-09T11:33:13.539Z,6.75
2024-05-09T11:34:17.832Z,5.75
2024-05-09T11:35:19.559Z,5.00
2024-05-09T11:36:23.937Z,5.75
2024-05-09T11:37:31.836Z,5.75
2024-05-09T11:38:34.487Z,5.25
2024-05-09T11:39:36.178Z,5.00
2024-05-09T11:40:40.589Z,6.00
2024-05-09T11:41:42.296Z,4.75
2024-05-09T11:42:47.236Z,5.00
2024-05-09T11:43:52.373Z,5.25
2024-05-09T11:44:54.011Z,3.75
2024-05-09T11:45:56.137Z,4.75
2024-05-09T11:46:57.783Z,6.00
2024-05-09T11:48:02.364Z,4.75
2024-05-09T11:49:04.308Z,4.50
2024-05-09T11:50:08.216Z,5.00
2024-05-09T11:51:11.877Z,4.50
2024-05-09T11:52:18.784Z,5.75
2024-05-09T11:53:20.421Z,6.00
2024-05-09T11:54:22.078Z,5.00
2024-05-09T11:55:28.224Z,5.50
2024-05-09T11:56:30.268Z,6.25
2024-05-09T11:57:32.177Z,5.25
2024-05-09T11:58:34.850Z,4.75
2024-05-09T11:59:39.147Z,6.00
2024-05-09T12:00:40.970Z,6.00
2024-05-09T12:01:42.939Z,5.00
2024-05-09T12:02:47.299Z,6.00
2024-05-09T12:03:49.715Z,5.50
2024-05-09T12:04:51.445Z,6.00
2024-05-09T12:05:53.291Z,6.00
2024-05-09T12:06:57.519Z,6.00
2024-05-09T12:08:01.894Z,5.50
2024-05-09T12:09:03.847Z,5.50
2024-05-09T12:10:11.702Z,5.00
2024-05-09T12:11:18.336Z,5.00
2024-05-09T12:12:19.957Z,6.00
2024-05-09T12:13:21.697Z,6.00
2024-05-09T12:14:23.432Z,9.25
2024-05-09T12:15:25.134Z,5.00
2024-05-09T12:16:29.712Z,5.50
2024-05-09T12:17:31.669Z,4.50
2024-05-09T12:18:34.244Z,6.00
2024-05-09T12:19:39.313Z,5.50
2024-05-09T12:20:41.036Z,6.00
2024-05-09T12:21:42.720Z,5.00
2024-05-09T12:22:44.350Z,5.00
2024-05-09T12:23:48.506Z,6.00
2024-05-09T12:24:52.755Z,6.00
2024-05-09T12:25:54.361Z,6.00
2024-05-09T12:26:56.064Z,5.00
2024-05-09T12:27:57.737Z,6.00
2024-05-09T12:29:02.138Z,5.25
2024-05-09T12:30:04.633Z,6.00
2024-05-09T12:31:08.758Z,5.75
2024-05-09T12:32:10.492Z,6.00
2024-05-09T12:33:14.820Z,5.50
2024-05-09T12:34:16.707Z,5.00
2024-05-09T12:35:18.386Z,5.00
2024-05-09T12:36:22.560Z,5.50
2024-05-09T12:37:24.247Z,6.00
2024-05-09T12:38:25.847Z,5.75
2024-05-09T12:39:30.089Z,4.75
2024-05-09T12:40:37.511Z,5.50
2024-05-09T12:41:40.584Z,5.00
2024-05-09T12:42:42.292Z,5.00
2024-05-09T12:43:46.519Z,4.75
2024-05-09T12:44:48.972Z,5.50
2024-05-09T12:45:50.622Z,4.75
2024-05-09T12:46:52.208Z,5.50
2024-05-09T12:47:56.572Z,7.00
2024-05-09T12:48:58.382Z,7.75
2024-05-09T12:50:00.182Z,11.75
2024-05-09T12:51:01.918Z,13.00
2024-05-09T12:52:06.415Z,11.75
2024-05-09T12:53:08.095Z,9.00
2024-05-09T12:54:09.728Z,7.00
2024-05-09T12:55:14.172Z,5.75
2024-05-09T12:56:18.474Z,6.25
2024-05-09T12:57:20.127Z,8.50
2024-05-09T12:58:22.358Z,7.25
2024-05-09T12:59:24.329Z,7.25
2024-05-09T13:00:33.722Z,4.75
2024-05-09T13:01:36.178Z,5.25
2024-05-09T13:02:37.987Z,5.25
2024-05-09T13:03:42.473Z,5.00
2024-05-09T13:04:44.411Z,4.50
2024-05-09T13:05:46.279Z,5.75
2024-05-09T13:06:47.949Z,4.75
2024-05-09T13:07:52.401Z,10.00
2024-05-09T13:08:54.037Z,12.00
2024-05-09T13:09:55.682Z,10.50
2024-05-09T13:11:02.569Z,8.75
2024-05-09T13:12:04.454Z,8.00
2024-05-09T13:13:06.076Z,8.75
2024-05-09T13:14:07.775Z,17.50
2024-05-09T13:15:11.937Z,6.75
2024-05-09T13:16:13.816Z,4.75
2024-05-09T13:17:15.524Z,4.50
2024-05-09T13:18:19.871Z,4.00
2024-05-09T13:19:21.734Z,5.25
2024-05-09T13:20:29.641Z,6.00
2024-05-09T13:21:37.566Z,4.50
2024-05-09T13:22:39.817Z,5.00
2024-05-09T13:23:41.428Z,5.00
2024-05-09T13:24:43.090Z,6.25
2024-05-09T13:25:47.246Z,5.00
2024-05-09T13:26:51.433Z,5.00
2024-05-09T13:27:53.046Z,5.00
2024-05-09T13:28:54.686Z,5.00
2024-05-09T13:29:58.946Z,5.00
2024-05-09T13:31:00.671Z,5.00
2024-05-09T13:32:02.299Z,5.00
2024-05-09T13:33:04.167Z,4.00
2024-05-09T13:34:08.869Z,5.25
2024-05-09T13:35:10.519Z,5.75
2024-05-09T13:36:12.116Z,5.75
2024-05-09T13:37:14.085Z,5.75
2024-05-09T13:38:18.509Z,5.50
2024-05-09T13:39:20.286Z,7.75
2024-05-09T13:40:30.004Z,6.50
2024-05-09T13:41:35.801Z,8.25
2024-05-09T13:42:42.778Z,8.00
2024-05-09T13:43:44.776Z,8.50
2024-05-09T13:44:46.374Z,7.25
2024-05-09T13:45:50.742Z,8.00
2024-05-09T13:46:52.424Z,10.75
2024-05-09T13:47:54.319Z,8.00
2024-05-09T13:48:58.721Z,15.50
2024-05-09T13:50:00.736Z,19.00
2024-05-09T13:51:02.525Z,9.50
2024-05-09T13:52:04.340Z,7.25
2024-05-09T13:53:09.241Z,5.50
2024-05-09T13:54:10.925Z,6.75
2024-05-09T13:55:12.955Z,5.50